Time;durP1;ratioP1;P1;durP2;ratioP2;P2;SDS_P1;SDS_P2;PMS_P1;PMS_P2;Temp;Humidity;BMP_temperature;BMP_pressure;BME280_temperature;BME280_humidity;BME280_pressure;Samples;Min_cycle;Max_cycle;Signal;HPM_P1;HPM_P2
2021/10/10 00:02:05;;;;;;;8.97;6.03;;;10.10;99.90;;;;;;4997029;28;20598;-68
2021/10/10 00:04:33;;;;;;;8.30;5.50;;;10.10;99.90;;;;;;4992185;28;20234;-67
2021/10/10 00:07:02;;;;;;;6.53;5.80;;;10.10;99.90;;;;;;4991657;28;20235;-68
2021/10/10 00:09:31;;;;;;;8.27;5.97;;;10.10;99.90;;;;;;4987669;28;20241;-68
2021/10/10 00:11:59;;;;;;;8.33;6.00;;;10.10;99.90;;;;;;4997326;28;20235;-68
2021/10/10 00:14:27;;;;;;;9.67;6.40;;;10.10;99.90;;;;;;4996793;28;20247;-67
2021/10/10 00:16:56;;;;;;;7.97;6.20;;;10.00;99.90;;;;;;4999085;28;20247;-67
2021/10/10 00:19:24;;;;;;;9.57;6.03;;;10.10;99.90;;;;;;4990608;28;20682;-67
2021/10/10 00:21:52;;;;;;;7.47;6.23;;;10.00;99.90;;;;;;4987281;28;20292;-68
2021/10/10 00:24:20;;;;;;;10.53;6.17;;;10.00;99.90;;;;;;4987299;28;20231;-67
2021/10/10 00:26:50;;;;;;;8.63;6.23;;;10.00;99.90;;;;;;4993013;28;20239;-67
2021/10/10 00:29:18;;;;;;;7.33;6.17;;;10.00;99.90;;;;;;4990864;28;20246;-67
2021/10/10 00:31:46;;;;;;;7.53;6.07;;;10.00;99.90;;;;;;4991395;28;20616;-67
2021/10/10 00:34:14;;;;;;;8.33;6.17;;;9.90;99.90;;;;;;4987929;28;20333;-67
2021/10/10 00:36:43;;;;;;;8.43;5.80;;;9.90;99.90;;;;;;4993253;28;20324;-68
2021/10/10 00:39:11;;;;;;;6.67;5.90;;;9.90;99.90;;;;;;4998811;28;20246;-67
2021/10/10 00:41:40;;;;;;;9.10;6.27;;;9.80;99.90;;;;;;4991521;28;20231;-67
2021/10/10 00:44:11;;;;;;;6.83;6.10;;;9.80;99.90;;;;;;4996346;28;20274;-67
2021/10/10 00:46:40;;;;;;;8.33;5.93;;;9.80;99.90;;;;;;4994803;28;20702;-67
2021/10/10 00:49:09;;;;;;;7.37;6.20;;;9.70;99.90;;;;;;4996412;28;20322;-68
2021/10/10 00:51:39;;;;;;;6.43;5.63;;;9.70;99.90;;;;;;4993004;28;20243;-67
2021/10/10 00:54:08;;;;;;;6.80;6.03;;;9.80;99.90;;;;;;4991430;28;20243;-67
2021/10/10 00:56:37;;;;;;;7.50;6.00;;;9.60;99.90;;;;;;4989162;28;20449;-67
2021/10/10 00:59:07;;;;;;;7.57;6.07;;;9.70;99.90;;;;;;4989710;28;20260;-67
2021/10/10 01:01:37;;;;;;;7.40;6.10;;;9.60;99.90;;;;;;4983066;28;21027;-67
2021/10/10 01:04:05;;;;;;;8.13;5.90;;;9.50;99.90;;;;;;4987012;28;20230;-67
2021/10/10 01:06:34;;;;;;;11.37;5.97;;;9.50;99.90;;;;;;4987991;28;20235;-67
2021/10/10 01:09:02;;;;;;;6.83;6.13;;;9.50;99.90;;;;;;4993695;28;20242;-67
2021/10/10 01:11:31;;;;;;;7.87;5.37;;;9.40;99.90;;;;;;4987692;28;20273;-67
2021/10/10 01:13:59;;;;;;;9.80;6.20;;;9.30;99.90;;;;;;5001212;28;20233;-67
2021/10/10 01:16:27;;;;;;;9.73;6.53;;;9.30;99.90;;;;;;4992293;28;20321;-67
2021/10/10 01:18:58;;;;;;;9.57;6.27;;;9.20;99.90;;;;;;4993780;28;20246;-67
2021/10/10 01:21:28;;;;;;;7.10;5.63;;;9.20;99.90;;;;;;4995563;28;20318;-67
2021/10/10 01:23:56;;;;;;;7.20;6.00;;;9.20;99.90;;;;;;4982877;28;20715;-67
2021/10/10 01:26:24;;;;;;;7.30;6.17;;;9.20;99.90;;;;;;4992064;28;20238;-68
2021/10/10 01:28:53;;;;;;;9.27;6.33;;;9.10;99.90;;;;;;4993063;28;20322;-67
2021/10/10 01:31:21;;;;;;;8.77;6.00;;;9.10;99.90;;;;;;4992367;28;20270;-67
2021/10/10 01:33:50;;;;;;;7.40;6.10;;;9.00;99.90;;;;;;4996388;28;20248;-67
2021/10/10 01:36:18;;;;;;;7.90;6.10;;;9.00;99.90;;;;;;4991946;28;20248;-67
2021/10/10 01:38:48;;;;;;;8.10;6.13;;;9.00;99.90;;;;;;4996270;28;20288;-67
2021/10/10 01:41:16;;;;;;;7.47;6.00;;;8.90;99.90;;;;;;4992426;28;20232;-67
2021/10/10 01:43:44;;;;;;;7.13;6.00;;;8.90;99.90;;;;;;5000791;28;20284;-67
2021/10/10 01:46:12;;;;;;;8.60;6.00;;;8.90;99.90;;;;;;4988500;28;20236;-67
2021/10/10 01:48:41;;;;;;;8.77;6.47;;;8.80;99.90;;;;;;4996368;28;20267;-67
2021/10/10 01:51:12;;;;;;;8.73;6.33;;;8.80;99.90;;;;;;4999227;28;20658;-67
2021/10/10 01:53:41;;;;;;;7.90;6.40;;;8.80;99.90;;;;;;4987602;28;20235;-67
2021/10/10 01:56:10;;;;;;;7.77;6.43;;;8.80;99.90;;;;;;4995711;28;20558;-67
2021/10/10 01:58:38;;;;;;;6.50;5.73;;;8.80;99.90;;;;;;4995336;28;20305;-67
2021/10/10 02:01:06;;;;;;;7.90;6.33;;;8.70;99.90;;;;;;4992860;28;20319;-67
2021/10/10 02:03:34;;;;;;;6.97;6.03;;;8.70;99.90;;;;;;5004608;28;20262;-67
2021/10/10 02:06:03;;;;;;;6.90;6.17;;;8.60;99.90;;;;;;4995156;28;20245;-67
2021/10/10 02:08:31;;;;;;;6.50;5.80;;;8.60;99.90;;;;;;5000879;28;20234;-67
2021/10/10 02:10:59;;;;;;;8.43;5.97;;;8.60;99.90;;;;;;4995294;28;20241;-67
2021/10/10 02:13:28;;;;;;;8.37;5.70;;;8.60;99.90;;;;;;5000608;28;20327;-67
2021/10/10 02:15:57;;;;;;;7.53;6.07;;;8.50;99.90;;;;;;4998074;28;20320;-67
2021/10/10 02:18:25;;;;;;;6.50;5.00;;;8.50;99.90;;;;;;4998680;28;20245;-67
2021/10/10 02:20:53;;;;;;;6.03;5.07;;;8.40;99.90;;;;;;4995551;28;20694;-67
2021/10/10 02:23:26;;;;;;;6.97;5.10;;;8.40;99.90;;;;;;4994215;28;20242;-67
2021/10/10 02:25:55;;;;;;;6.90;5.30;;;8.30;99.90;;;;;;4994575;28;20229;-67
2021/10/10 02:28:23;;;;;;;6.53;4.97;;;8.30;99.90;;;;;;4996370;28;20240;-68
2021/10/10 02:30:52;;;;;;;6.47;5.10;;;8.30;99.90;;;;;;4997708;28;20740;-67
2021/10/10 02:33:20;;;;;;;6.13;4.80;;;8.30;99.90;;;;;;4991194;28;20236;-67
2021/10/10 02:35:49;;;;;;;6.07;4.90;;;8.20;99.90;;;;;;4996038;28;20272;-67
2021/10/10 02:38:17;;;;;;;8.70;5.60;;;8.20;99.90;;;;;;4994244;28;20244;-67
2021/10/10 02:40:45;;;;;;;6.40;5.50;;;8.10;99.90;;;;;;4997094;28;20234;-67
2021/10/10 02:43:14;;;;;;;6.50;5.47;;;8.20;99.90;;;;;;4993326;28;20335;-67
2021/10/10 02:45:42;;;;;;;5.87;5.23;;;8.10;99.90;;;;;;4995461;28;20329;-67
2021/10/10 02:48:12;;;;;;;10.27;5.53;;;8.10;99.90;;;;;;4996517;28;20695;-67
2021/10/10 02:50:40;;;;;;;6.70;5.50;;;8.10;99.90;;;;;;4997143;28;20253;-67
2021/10/10 02:53:10;;;;;;;7.67;5.73;;;8.10;99.90;;;;;;4988543;28;20238;-67
2021/10/10 02:55:38;;;;;;;7.93;6.10;;;8.00;99.90;;;;;;4994997;28;20237;-67
2021/10/10 02:58:08;;;;;;;6.57;5.87;;;8.00;99.90;;;;;;4994105;28;20242;-67
2021/10/10 03:00:36;;;;;;;6.90;5.70;;;7.90;99.90;;;;;;4990291;28;20634;-67
2021/10/10 03:03:04;;;;;;;7.90;5.77;;;7.90;99.90;;;;;;4995475;28;20724;-67
2021/10/10 03:05:35;;;;;;;8.13;6.10;;;7.90;99.90;;;;;;4983761;28;20609;-67
2021/10/10 03:08:03;;;;;;;7.17;5.60;;;7.90;99.90;;;;;;4996343;28;20316;-67
2021/10/10 03:10:31;;;;;;;7.20;6.10;;;7.90;99.90;;;;;;4989519;28;20230;-67
2021/10/10 03:12:59;;;;;;;7.87;5.97;;;7.80;99.90;;;;;;4995631;28;20283;-67
2021/10/10 03:15:27;;;;;;;7.10;5.73;;;7.80;99.90;;;;;;4993556;28;20744;-68
2021/10/10 03:17:56;;;;;;;7.87;6.47;;;7.80;99.90;;;;;;4995034;28;20257;-67
2021/10/10 03:20:24;;;;;;;8.30;6.00;;;7.80;99.90;;;;;;4993835;28;20234;-67
2021/10/10 03:22:53;;;;;;;7.63;6.57;;;7.80;99.90;;;;;;4989153;28;20754;-67
2021/10/10 03:25:21;;;;;;;8.13;7.00;;;7.80;99.90;;;;;;4993672;28;20237;-67
2021/10/10 03:27:49;;;;;;;6.93;6.07;;;7.70;99.90;;;;;;5002074;28;20267;-67
2021/10/10 03:30:18;;;;;;;9.87;6.90;;;7.70;99.90;;;;;;4996826;28;20233;-67
2021/10/10 03:32:46;;;;;;;6.07;5.40;;;7.70;99.90;;;;;;4994168;28;20601;-67
2021/10/10 03:35:14;;;;;;;9.30;6.80;;;7.60;99.90;;;;;;4990470;28;20736;-67
2021/10/10 03:37:42;;;;;;;7.30;6.30;;;7.70;99.90;;;;;;4997118;28;20233;-67
2021/10/10 03:40:13;;;;;;;9.77;6.90;;;7.70;99.90;;;;;;4990926;28;20710;-67
2021/10/10 03:42:44;;;;;;;6.63;5.73;;;7.60;99.90;;;;;;4989089;28;20234;-67
2021/10/10 03:45:12;;;;;;;7.23;5.00;;;7.50;99.90;;;;;;4997591;28;20296;-67
2021/10/10 03:47:41;;;;;;;6.90;5.17;;;7.40;99.90;;;;;;4995547;28;20226;-67
2021/10/10 03:50:09;;;;;;;5.47;4.63;;;7.40;99.90;;;;;;4990678;28;20248;-67
2021/10/10 03:52:38;;;;;;;5.87;4.73;;;7.30;99.90;;;;;;4995152;28;20229;-67
2021/10/10 03:55:30;;;;;;;5.60;4.97;;;7.30;99.90;;;;;;4997624;28;20225;-67
2021/10/10 03:58:00;;;;;;;5.73;4.97;;;7.30;99.90;;;;;;4988588;28;20904;-67
2021/10/10 04:00:30;;;;;;;5.40;4.67;;;7.20;99.90;;;;;;4997386;28;20683;-67
2021/10/10 04:03:00;;;;;;;6.93;5.60;;;7.20;99.90;;;;;;4991016;28;20579;-67
2021/10/10 04:05:39;;;;;;;6.17;5.23;;;7.20;99.90;;;;;;4980266;28;20257;-67
2021/10/10 04:08:07;;;;;;;6.83;5.40;;;7.10;99.90;;;;;;4998709;28;20236;-67
2021/10/10 04:10:36;;;;;;;6.73;5.37;;;7.20;99.90;;;;;;4988023;28;20361;-67
2021/10/10 04:13:06;;;;;;;5.93;5.33;;;7.10;99.90;;;;;;4992788;28;20702;-67
2021/10/10 04:15:36;;;;;;;7.83;5.90;;;7.10;99.90;;;;;;4989058;28;20230;-67
2021/10/10 04:18:05;;;;;;;5.13;4.63;;;7.00;99.90;;;;;;5000346;28;20239;-67
2021/10/10 04:20:34;;;;;;;4.77;4.27;;;7.00;99.90;;;;;;4987795;28;20222;-67
2021/10/10 04:23:04;;;;;;;5.00;4.50;;;7.10;99.90;;;;;;4991747;28;20240;-67
2021/10/10 04:25:33;;;;;;;5.60;4.67;;;7.00;99.90;;;;;;4989465;28;20320;-67
2021/10/10 04:28:01;;;;;;;6.07;5.07;;;7.00;99.90;;;;;;4989132;28;20667;-67
2021/10/10 04:30:30;;;;;;;6.17;5.10;;;6.90;99.90;;;;;;4991997;28;20287;-67
2021/10/10 04:32:59;;;;;;;6.23;5.03;;;6.90;99.90;;;;;;4991645;28;20245;-67
2021/10/10 04:35:27;;;;;;;6.67;5.97;;;6.90;99.90;;;;;;4989770;28;20313;-67
2021/10/10 04:37:58;;;;;;;6.33;5.10;;;6.90;99.90;;;;;;4975974;28;20677;-67
2021/10/10 04:40:26;;;;;;;6.87;5.60;;;6.90;99.90;;;;;;4975403;28;20240;-67
2021/10/10 04:42:54;;;;;;;7.23;5.73;;;6.80;99.90;;;;;;4984301;28;20667;-67
2021/10/10 04:45:22;;;;;;;7.03;6.33;;;6.80;99.90;;;;;;4985544;28;20247;-67
2021/10/10 04:47:52;;;;;;;7.00;5.30;;;6.80;99.90;;;;;;4984948;28;20260;-67
2021/10/10 04:50:20;;;;;;;6.67;5.97;;;6.80;99.90;;;;;;4984108;28;20572;-68
2021/10/10 04:52:48;;;;;;;8.40;5.50;;;6.70;99.90;;;;;;4980480;28;20247;-68
2021/10/10 04:55:16;;;;;;;8.33;6.03;;;6.70;99.90;;;;;;4982411;28;20722;-67
2021/10/10 04:57:44;;;;;;;6.83;5.70;;;6.70;99.90;;;;;;4982920;28;20241;-67
2021/10/10 05:00:13;;;;;;;8.63;6.43;;;6.70;99.90;;;;;;4978168;28;20780;-67
2021/10/10 05:02:41;;;;;;;8.47;6.80;;;6.70;99.90;;;;;;4975635;28;20365;-68
2021/10/10 05:05:12;;;;;;;7.40;6.53;;;6.70;99.90;;;;;;4975727;28;20234;-68
2021/10/10 05:07:40;;;;;;;8.03;6.43;;;6.70;99.90;;;;;;4980314;28;20325;-67
2021/10/10 05:10:09;;;;;;;8.73;6.43;;;6.70;99.90;;;;;;4981232;28;20241;-67
2021/10/10 05:12:37;;;;;;;9.47;6.30;;;6.60;99.90;;;;;;4979665;28;20355;-67
2021/10/10 05:15:06;;;;;;;8.60;6.13;;;6.70;99.90;;;;;;4981005;28;20240;-67
2021/10/10 05:17:35;;;;;;;9.93;7.10;;;6.80;99.90;;;;;;4984044;28;20728;-67
2021/10/10 05:20:03;;;;;;;7.80;6.20;;;6.80;99.90;;;;;;4983921;28;20238;-67
2021/10/10 05:22:33;;;;;;;7.97;6.63;;;6.70;99.90;;;;;;4982526;28;20252;-67
2021/10/10 05:25:02;;;;;;;8.43;5.73;;;6.60;99.90;;;;;;4985091;28;20242;-67
2021/10/10 05:27:30;;;;;;;6.73;5.73;;;6.50;99.90;;;;;;4981956;28;20241;-67
2021/10/10 05:29:58;;;;;;;7.97;5.70;;;6.50;99.90;;;;;;4984182;28;20234;-67
2021/10/10 05:32:27;;;;;;;7.07;5.77;;;6.50;99.90;;;;;;5000087;28;20230;-66
2021/10/10 05:34:55;;;;;;;5.87;5.20;;;6.50;99.90;;;;;;4994248;28;20238;-67
2021/10/10 05:37:24;;;;;;;6.20;5.37;;;6.60;99.90;;;;;;5000391;28;20807;-67
2021/10/10 05:39:53;;;;;;;6.13;5.23;;;6.60;99.90;;;;;;4995171;28;20241;-67
2021/10/10 05:42:22;;;;;;;6.97;5.80;;;6.70;99.90;;;;;;4990007;28;20725;-67
2021/10/10 05:44:50;;;;;;;8.40;5.90;;;6.70;99.90;;;;;;4994526;28;20238;-67
2021/10/10 05:47:18;;;;;;;7.10;5.40;;;6.70;99.90;;;;;;4999217;28;20275;-67
2021/10/10 05:49:46;;;;;;;7.40;5.67;;;6.70;99.90;;;;;;4984036;28;20241;-67
2021/10/10 05:52:17;;;;;;;7.30;6.00;;;6.80;99.90;;;;;;4991978;28;20524;-67
2021/10/10 05:54:45;;;;;;;10.63;6.73;;;6.90;99.90;;;;;;4997421;28;20284;-67
2021/10/10 05:57:18;;;;;;;8.87;6.87;;;6.80;99.90;;;;;;4998459;28;20237;-67
2021/10/10 05:59:46;;;;;;;9.50;6.20;;;6.80;99.90;;;;;;4990220;28;20234;-67
2021/10/10 06:02:14;;;;;;;8.43;6.30;;;6.70;99.90;;;;;;4994154;28;20234;-67
2021/10/10 06:04:43;;;;;;;6.23;5.60;;;6.70;99.90;;;;;;4978350;28;20235;-67
2021/10/10 06:07:11;;;;;;;7.87;6.10;;;6.70;99.90;;;;;;4992858;28;20742;-67
2021/10/10 06:09:39;;;;;;;6.50;5.80;;;6.70;99.90;;;;;;4994608;28;20285;-67
2021/10/10 06:12:07;;;;;;;8.00;5.90;;;6.60;99.90;;;;;;4993132;28;20585;-67
2021/10/10 06:14:37;;;;;;;8.20;6.00;;;6.70;99.90;;;;;;4981683;28;20322;-67
2021/10/10 06:17:06;;;;;;;8.50;6.13;;;6.70;99.90;;;;;;4992849;28;20237;-67
2021/10/10 06:19:36;;;;;;;7.50;6.23;;;6.80;99.90;;;;;;4996208;28;20241;-67
2021/10/10 06:22:04;;;;;;;7.30;6.07;;;6.90;99.90;;;;;;4992761;28;20697;-67
2021/10/10 06:24:32;;;;;;;7.80;5.90;;;7.00;99.90;;;;;;4994164;28;20672;-67
2021/10/10 06:27:00;;;;;;;7.17;6.20;;;7.10;99.90;;;;;;4993607;28;20233;-67
2021/10/10 06:29:28;;;;;;;8.13;6.30;;;7.20;99.90;;;;;;4991472;28;20238;-67
2021/10/10 06:31:57;;;;;;;6.83;5.63;;;7.30;99.90;;;;;;4986855;28;20237;-67
2021/10/10 06:34:26;;;;;;;8.20;6.60;;;7.40;99.90;;;;;;4989062;28;20252;-67
2021/10/10 06:36:54;;;;;;;7.27;6.03;;;7.50;99.90;;;;;;4987550;28;20728;-67
2021/10/10 06:39:22;;;;;;;7.23;6.43;;;7.60;99.90;;;;;;4989143;28;20242;-67
2021/10/10 06:41:51;;;;;;;9.00;6.83;;;7.70;99.90;;;;;;4985481;28;20234;-67
2021/10/10 06:44:22;;;;;;;8.43;7.40;;;7.90;99.90;;;;;;4979465;28;20241;-67
2021/10/10 06:46:50;;;;;;;9.53;7.07;;;8.00;99.90;;;;;;5001566;28;20241;-67
2021/10/10 06:49:19;;;;;;;12.50;8.40;;;8.10;99.90;;;;;;4997372;28;20238;-67
2021/10/10 06:51:47;;;;;;;10.10;8.13;;;8.20;99.90;;;;;;4995437;28;20240;-67
2021/10/10 06:54:15;;;;;;;11.37;8.83;;;8.30;99.90;;;;;;4990484;28;20324;-67
2021/10/10 06:56:44;;;;;;;10.77;8.67;;;8.30;99.90;;;;;;4988704;28;20260;-67
2021/10/10 06:59:12;;;;;;;11.67;9.37;;;8.50;99.90;;;;;;4990102;28;20326;-67
2021/10/10 07:01:40;;;;;;;9.60;8.47;;;8.70;99.90;;;;;;4991738;28;20737;-67
2021/10/10 07:04:08;;;;;;;9.10;7.80;;;8.70;99.90;;;;;;4990891;28;20665;-67
2021/10/10 07:06:38;;;;;;;8.87;7.43;;;8.80;99.90;;;;;;4995388;28;20734;-67
2021/10/10 07:09:06;;;;;;;9.30;7.77;;;9.00;99.90;;;;;;4994846;28;20237;-67
2021/10/10 07:11:34;;;;;;;8.27;7.47;;;9.20;99.90;;;;;;4994721;28;20253;-67
2021/10/10 07:14:02;;;;;;;10.97;8.33;;;9.40;99.90;;;;;;4990477;28;20236;-67
2021/10/10 07:16:32;;;;;;;10.60;8.10;;;9.60;99.90;;;;;;4982464;28;20235;-67
2021/10/10 07:19:00;;;;;;;9.70;8.70;;;9.80;99.90;;;;;;4995032;28;20234;-67
2021/10/10 07:21:44;;;;;;;10.60;8.20;;;10.10;99.90;;;;;;4988233;28;20537;-67
2021/10/10 07:26:57;;;;;;;11.57;9.30;;;10.40;99.90;;;;;;4992481;28;20773;-67
2021/10/10 07:29:25;;;;;;;12.33;8.73;;;10.60;99.90;;;;;;4992633;28;20243;-67
2021/10/10 07:31:53;;;;;;;14.27;8.87;;;10.80;99.90;;;;;;4995390;28;20312;-67
2021/10/10 07:34:22;;;;;;;12.90;9.03;;;11.00;99.90;;;;;;4991378;28;20234;-67
2021/10/10 07:36:51;;;;;;;11.27;8.70;;;11.20;99.90;;;;;;4993246;28;20239;-68
2021/10/10 07:39:20;;;;;;;12.67;9.60;;;11.40;99.90;;;;;;4986427;28;20710;-68
2021/10/10 07:41:49;;;;;;;11.17;9.03;;;11.50;99.90;;;;;;4981831;28;20259;-67
2021/10/10 07:44:17;;;;;;;10.73;9.20;;;11.60;99.90;;;;;;4985198;28;20250;-67
2021/10/10 07:46:55;;;;;;;10.80;9.43;;;11.80;99.90;;;;;;4988064;28;20257;-67
2021/10/10 07:49:23;;;;;;;11.60;9.30;;;11.70;99.90;;;;;;4988932;28;20800;-68
2021/10/10 07:51:52;;;;;;;9.90;8.90;;;11.70;99.90;;;;;;4998994;28;20314;-68
2021/10/10 07:54:20;;;;;;;12.17;9.20;;;11.80;99.90;;;;;;4991879;28;20759;-67
2021/10/10 07:56:49;;;;;;;10.83;9.17;;;11.80;99.90;;;;;;4994931;28;20235;-67
2021/10/10 07:59:17;;;;;;;11.57;9.73;;;11.80;99.90;;;;;;4993241;28;20246;-67
2021/10/10 08:01:45;;;;;;;10.57;9.47;;;11.90;99.90;;;;;;4986620;28;21345;-67
2021/10/10 08:04:13;;;;;;;13.10;8.60;;;11.90;99.90;;;;;;4989364;28;20751;-67
2021/10/10 08:06:42;;;;;;;10.70;9.17;;;12.00;99.90;;;;;;4985645;28;20247;-68
2021/10/10 08:09:11;;;;;;;11.03;9.50;;;12.00;99.90;;;;;;4998848;28;20310;-68
2021/10/10 08:11:39;;;;;;;10.57;9.43;;;12.00;99.90;;;;;;4989637;28;20233;-67
2021/10/10 08:14:07;;;;;;;11.17;9.40;;;12.30;99.90;;;;;;4986369;28;21180;-67
2021/10/10 08:16:35;;;;;;;13.20;9.07;;;12.50;99.90;;;;;;4999059;28;20243;-67
2021/10/10 08:19:04;;;;;;;11.43;8.70;;;12.60;99.90;;;;;;4988605;28;20291;-68
2021/10/10 08:21:51;;;;;;;11.09;9.28;;;12.60;99.90;;;;;;4465236;28;10001046;-67
2021/10/10 08:24:23;;;;;;;10.63;9.32;;;12.80;99.90;;;;;;2401188;28;10001909;-68
2021/10/10 08:26:51;;;;;;;9.97;8.90;;;12.90;99.90;;;;;;4976780;28;20739;-68
2021/10/10 08:29:19;;;;;;;11.07;9.10;;;13.00;99.90;;;;;;4976170;28;20229;-68
2021/10/10 08:31:47;;;;;;;10.40;8.90;;;13.10;99.90;;;;;;4977642;28;20327;-67
2021/10/10 08:34:18;;;;;;;9.87;8.87;;;13.40;99.90;;;;;;4977124;28;20298;-68
2021/10/10 08:36:47;;;;;;;11.27;8.83;;;13.70;99.90;;;;;;4978166;28;20705;-67
2021/10/10 08:39:22;;;;;;;12.17;9.37;;;13.90;99.90;;;;;;4968677;28;20324;-67
2021/10/10 08:41:57;;;;;;;13.03;8.70;;;13.90;99.90;;;;;;4991383;28;20237;-67
2021/10/10 08:44:31;;;;;;;12.07;8.90;;;14.00;99.90;;;;;;4988349;28;20272;-67
2021/10/10 08:47:03;;;;;;;10.13;9.00;;;13.90;99.90;;;;;;4994060;28;20243;-67
2021/10/10 08:49:37;;;;;;;11.37;9.03;;;13.90;99.90;;;;;;4987881;28;20275;-67
2021/10/10 08:52:07;;;;;;;9.50;8.50;;;13.90;99.90;;;;;;4988418;28;20260;-67
2021/10/10 08:54:50;;;;;;;10.90;8.70;;;13.80;99.90;;;;;;4989085;28;20236;-67
2021/10/10 08:57:20;;;;;;;10.97;9.63;;;13.80;99.90;;;;;;4994024;28;20256;-67
2021/10/10 08:59:53;;;;;;;10.20;9.10;;;13.80;99.90;;;;;;4997177;28;20323;-67
2021/10/10 09:02:25;;;;;;;9.87;8.80;;;13.50;99.90;;;;;;4996603;28;20332;-67
2021/10/10 09:04:53;;;;;;;13.70;9.37;;;13.30;99.90;;;;;;4980869;28;20249;-68
2021/10/10 09:07:21;;;;;;;12.40;8.97;;;13.20;99.90;;;;;;4998202;28;20722;-67
2021/10/10 09:09:49;;;;;;;11.07;9.03;;;12.90;99.90;;;;;;4990472;28;20257;-67
2021/10/10 09:12:19;;;;;;;11.90;9.67;;;12.80;99.90;;;;;;4984238;28;20758;-68
2021/10/10 09:14:48;;;;;;;11.13;9.07;;;12.80;99.90;;;;;;4986726;28;20291;-68
2021/10/10 09:17:19;;;;;;;12.77;9.50;;;12.70;99.90;;;;;;4984909;28;20239;-67
2021/10/10 09:19:52;;;;;;;12.33;9.87;;;12.60;99.90;;;;;;4987851;28;20432;-67
2021/10/10 09:22:21;;;;;;;12.13;8.73;;;12.40;99.90;;;;;;4986511;28;20245;-68
2021/10/10 09:24:50;;;;;;;13.43;8.87;;;12.50;99.90;;;;;;4990978;28;20728;-67
2021/10/10 09:27:21;;;;;;;10.90;9.20;;;12.70;99.90;;;;;;4994418;28;20593;-67
2021/10/10 09:29:52;;;;;;;16.07;10.07;;;13.00;99.90;;;;;;4991955;28;20280;-67
2021/10/10 09:32:25;;;;;;;12.00;9.47;;;13.10;99.90;;;;;;4995314;28;20267;-67
2021/10/10 09:34:53;;;;;;;15.33;11.00;;;13.30;99.90;;;;;;4992050;28;20265;-67
2021/10/10 09:37:26;;;;;;;15.20;11.10;;;13.50;99.90;;;;;;4995694;28;20245;-67
2021/10/10 09:40:00;;;;;;;13.73;9.87;;;13.70;99.90;;;;;;4997763;28;20758;-68
2021/10/10 09:42:38;;;;;;;11.70;9.70;;;13.70;99.90;;;;;;5003804;28;20332;-67
2021/10/10 09:45:19;;;;;;;11.33;10.13;;;13.60;99.90;;;;;;4994282;28;20241;-67
2021/10/10 09:47:50;;;;;;;13.20;10.07;;;13.80;99.90;;;;;;4990618;28;20292;-67
2021/10/10 09:50:19;;;;;;;12.50;10.07;;;13.70;99.90;;;;;;4987229;28;20734;-67
2021/10/10 09:52:58;;;;;;;11.03;9.37;;;13.70;99.90;;;;;;4994571;28;20228;-67
2021/10/10 09:55:27;;;;;;;12.13;8.70;;;13.90;99.90;;;;;;4990852;28;20260;-67
2021/10/10 09:57:57;;;;;;;14.17;9.30;;;14.10;99.90;;;;;;4996351;28;20237;-67
2021/10/10 10:00:27;;;;;;;10.13;9.13;;;14.00;99.90;;;;;;4986778;28;20272;-67
2021/10/10 10:03:02;;;;;;;10.40;9.23;;;13.90;99.90;;;;;;5003132;28;20248;-67
2021/10/10 10:05:32;;;;;;;13.63;9.43;;;14.10;99.90;;;;;;4990137;28;20795;-67
2021/10/10 10:08:01;;;;;;;13.00;9.77;;;14.40;99.90;;;;;;5005654;28;20240;-67
2021/10/10 10:10:31;;;;;;;12.03;9.10;;;14.60;99.90;;;;;;4986250;28;20233;-68
2021/10/10 10:13:03;;;;;;;13.10;11.17;;;14.60;99.90;;;;;;4991098;28;20570;-67
2021/10/10 10:15:33;;;;;;;14.50;12.17;;;14.60;99.90;;;;;;4990346;28;20269;-68
2021/10/10 10:18:01;;;;;;;12.27;9.50;;;14.60;99.90;;;;;;4990998;28;20238;-69
2021/10/10 10:20:31;;;;;;;15.07;10.40;;;14.70;99.90;;;;;;4987887;28;20237;-69
2021/10/10 10:23:00;;;;;;;12.10;8.37;;;14.90;99.90;;;;;;4979733;28;20321;-67
2021/10/10 10:25:29;;;;;;;11.13;9.03;;;15.60;99.90;;;;;;4984429;28;20229;-68
2021/10/10 10:27:57;;;;;;;14.47;8.37;;;15.80;99.90;;;;;;4985103;28;20304;-77
2021/10/10 10:30:27;;;;;;;12.20;8.77;;;15.90;99.90;;;;;;4986577;28;20241;-67
2021/10/10 10:32:56;;;;;;;16.07;8.83;;;16.20;99.90;;;;;;4985473;28;20246;-67
2021/10/10 10:35:24;;;;;;;18.10;9.40;;;16.40;99.90;;;;;;4985203;28;20234;-68
2021/10/10 10:37:55;;;;;;;10.90;8.40;;;16.50;99.90;;;;;;4985239;28;20330;-67
2021/10/10 10:40:36;;;;;;;12.37;9.37;;;16.60;99.90;;;;;;4990816;28;20237;-66
2021/10/10 10:43:06;;;;;;;11.13;9.70;;;16.70;99.90;;;;;;4989761;28;20253;-66
2021/10/10 10:45:38;;;;;;;14.13;9.17;;;16.60;99.90;;;;;;4989316;28;20684;-67
2021/10/10 10:48:07;;;;;;;14.60;9.17;;;16.40;99.90;;;;;;4991253;28;20312;-68
2021/10/10 10:50:40;;;;;;;16.03;9.73;;;16.40;99.90;;;;;;4981287;28;20238;-68
2021/10/10 10:53:11;;;;;;;15.00;9.80;;;16.40;99.90;;;;;;4984753;28;20767;-67
2021/10/10 10:55:40;;;;;;;11.73;9.67;;;16.30;99.90;;;;;;4985487;28;20230;-64
2021/10/10 10:58:13;;;;;;;14.40;10.00;;;16.00;99.90;;;;;;4987262;28;20325;-65
2021/10/10 11:00:44;;;;;;;11.77;8.93;;;15.80;99.90;;;;;;4985617;28;20234;-66
2021/10/10 11:03:14;;;;;;;11.23;8.80;;;15.70;99.90;;;;;;4988276;28;20245;-66
2021/10/10 11:05:51;;;;;;;15.93;10.53;;;15.50;99.90;;;;;;4985403;28;20237;-66
2021/10/10 11:08:39;;;;;;;14.20;10.57;;;15.30;99.90;;;;;;4981909;28;20260;-64
2021/10/10 11:11:16;;;;;;;11.07;9.73;;;15.20;99.90;;;;;;4984766;28;20242;-64
2021/10/10 11:13:47;;;;;;;13.70;9.13;;;15.30;99.90;;;;;;4989895;28;20373;-64
2021/10/10 11:16:18;;;;;;;11.87;9.57;;;15.20;99.90;;;;;;4984879;28;20250;-65
2021/10/10 11:18:52;;;;;;;10.93;9.33;;;14.80;99.90;;;;;;4983271;28;20238;-63
2021/10/10 11:21:23;;;;;;;14.03;10.77;;;14.70;99.90;;;;;;4987465;28;20320;-64
2021/10/10 11:23:53;;;;;;;12.40;9.47;;;14.70;99.90;;;;;;4977667;28;20321;-65
2021/10/10 11:26:27;;;;;;;13.07;10.30;;;14.60;99.90;;;;;;4981670;28;20237;-65
2021/10/10 11:28:57;;;;;;;11.57;9.63;;;14.70;99.90;;;;;;4984993;28;20261;-64
2021/10/10 11:31:28;;;;;;;10.70;9.57;;;14.90;99.90;;;;;;4983657;28;20321;-65
2021/10/10 11:33:58;;;;;;;11.23;9.43;;;15.10;99.90;;;;;;4983187;28;20242;-64
2021/10/10 11:36:35;;;;;;;11.07;9.13;;;15.40;99.90;;;;;;4982381;28;20713;-65
2021/10/10 11:39:05;;;;;;;14.03;10.30;;;15.50;99.90;;;;;;4981588;28;20252;-65
2021/10/10 11:41:38;;;;;;;12.93;10.03;;;15.40;99.90;;;;;;4980355;28;20237;-65
2021/10/10 11:44:09;;;;;;;10.17;9.07;;;15.50;99.90;;;;;;4978090;28;20233;-64
2021/10/10 11:46:48;;;;;;;11.33;9.00;;;15.50;99.90;;;;;;4983143;28;20348;-65
2021/10/10 11:49:30;;;;;;;12.37;9.27;;;15.50;99.90;;;;;;4982883;28;20246;-65
2021/10/10 11:52:19;;;;;;;10.47;9.37;;;15.40;99.90;;;;;;4984960;28;20241;-68
2021/10/10 11:54:49;;;;;;;12.23;9.07;;;15.40;99.90;;;;;;4982334;28;20596;-67
2021/10/10 11:57:17;;;;;;;13.13;9.93;;;15.50;99.90;;;;;;4980151;28;20261;-72
2021/10/10 11:59:51;;;;;;;10.80;9.40;;;15.70;99.90;;;;;;4982766;28;21774;-63
2021/10/10 12:02:25;;;;;;;12.77;9.70;;;15.80;99.90;;;;;;4978734;28;20328;-64
2021/10/10 12:05:05;;;;;;;11.20;9.73;;;15.80;99.90;;;;;;4982497;28;20265;-64
2021/10/10 12:07:34;;;;;;;10.97;9.20;;;16.00;99.90;;;;;;4979086;28;20590;-63
2021/10/10 12:10:04;;;;;;;12.70;10.00;;;16.00;99.90;;;;;;4982106;28;20690;-64
2021/10/10 12:12:33;;;;;;;12.60;9.00;;;16.10;99.90;;;;;;4985805;28;20238;-64
2021/10/10 12:15:01;;;;;;;14.67;9.37;;;16.20;99.90;;;;;;4986110;28;20264;-65
2021/10/10 12:17:36;;;;;;;11.20;8.87;;;16.10;99.90;;;;;;4987030;28;20247;-67
2021/10/10 12:20:22;;;;;;;11.67;8.80;;;16.20;99.90;;;;;;4980335;28;20237;-67
2021/10/10 12:22:54;;;;;;;10.83;8.97;;;16.20;99.90;;;;;;4984678;28;20330;-70
2021/10/10 12:25:31;;;;;;;12.07;8.67;;;16.10;99.90;;;;;;4984269;28;20284;-68
2021/10/10 12:28:04;;;;;;;14.03;9.17;;;16.20;99.90;;;;;;4985393;28;20667;-68
2021/10/10 12:30:36;;;;;;;10.47;8.10;;;16.20;99.90;;;;;;4983276;28;20238;-71
2021/10/10 12:33:26;;;;;;;13.93;8.50;;;16.10;99.90;;;;;;4985258;28;20234;-65
2021/10/10 12:35:59;;;;;;;13.30;8.87;;;16.20;99.90;;;;;;4984987;28;20243;-66
2021/10/10 12:38:38;;;;;;;11.47;8.47;;;16.10;99.90;;;;;;4982600;28;20296;-64
2021/10/10 12:41:25;;;;;;;11.80;8.70;;;16.10;99.90;;;;;;4981416;28;20324;-64
2021/10/10 12:43:57;;;;;;;11.43;7.97;;;16.10;99.90;;;;;;4971163;28;20571;-64
2021/10/10 12:46:27;;;;;;;11.03;8.07;;;16.10;99.90;;;;;;4973052;28;20617;-64
2021/10/10 12:49:03;;;;;;;9.47;8.13;;;16.10;99.90;;;;;;4978106;28;20767;-64
2021/10/10 12:51:33;;;;;;;9.57;8.10;;;16.10;99.90;;;;;;4975262;28;20248;-63
2021/10/10 12:54:11;;;;;;;12.43;9.13;;;16.10;99.90;;;;;;4976622;28;20799;-64
2021/10/10 12:56:40;;;;;;;10.50;9.40;;;15.90;99.90;;;;;;4972837;28;20268;-65
2021/10/10 12:59:08;;;;;;;12.60;9.00;;;15.70;99.90;;;;;;4971720;28;20488;-64
2021/10/10 13:01:37;;;;;;;12.50;8.33;;;15.70;99.90;;;;;;4974053;28;20972;-64
2021/10/10 13:04:16;;;;;;;12.17;8.60;;;15.60;99.90;;;;;;4976577;28;20689;-63
2021/10/10 13:06:44;;;;;;;11.13;7.60;;;15.60;99.90;;;;;;4980814;28;20269;-63